LGMT/MJT METAR and TAF weather

Enter ICAO airport designator
Station Type Date Time Source
LGMT METAR 2021/09/23 16:50 UTC NOAA

LGMT 231650Z 03008KT 9999 FEW025 19/09 Q1017


Station Type Date Time Source
LGMT Decoded METAR 2021/09/23 16:50 UTC NOAA

Mytilini Airport , Greece (LGMT) 39-04N 026-36E 5M
Sep 23, 2021 - 12:50 PM EDT / 2021.09.23 1650 UTC
Wind: from the NNE (030 degrees) at 9 MPH (8 KT):0
Visibility: greater than 7 mile(s):0
Sky conditions: mostly clear
Temperature: 66 F (19 C)
Dew Point: 48 F (9 C)
Relative Humidity: 52%
Pressure (altimeter): 30.03 in. Hg (1017 hPa)
ob: LGMT 231650Z 03008KT 9999 FEW025 19/09 Q1017
cycle: 17

Station Type Date Time Source
LGMT TAF 2012/09/21 03:06 UTC NOAA

TAF LGMT 210200Z 2103/2115 VRB05KT 9999 SCT020
BECMG 2103/2105 30015KT PROB30
TEMPO 2103/2106 7000 RA SCT018 BKN030
BECMG 2107/2109 29012KT

Example: see airport list